Time;durP1;ratioP1;P1;durP2;ratioP2;P2;SDS_P1;SDS_P2;PMS_P1;PMS_P2;Temp;Humidity;BMP_temperature;BMP_pressure;BME280_temperature;BME280_humidity;BME280_pressure;Samples;Min_cycle;Max_cycle;Signal;HPM_P1;HPM_P2
2023/02/15 00:01:35;;;;;;;57.72;26.77;;;;;;;1.75;100.00;101944.47;5077743;28;20049;-80
2023/02/15 00:04:04;;;;;;;58.00;27.60;;;;;;;1.58;100.00;101929.41;5081696;28;20052;-79
2023/02/15 00:06:30;;;;;;;53.25;25.88;;;;;;;1.59;100.00;101905.94;5079449;28;20091;-77
2023/02/15 00:08:58;;;;;;;59.97;26.95;;;;;;;1.35;100.00;101858.63;5077517;28;20048;-81
2023/02/15 00:11:42;;;;;;;59.88;28.13;;;;;;;2.15;100.00;101960.69;5080478;28;20071;-81
2023/02/15 00:14:15;;;;;;;55.20;25.73;;;;;;;2.00;100.00;101919.56;5081482;28;20075;-79
2023/02/15 00:16:43;;;;;;;54.88;26.63;;;;;;;2.25;100.00;101952.06;5077985;28;20516;-81
2023/02/15 00:19:12;;;;;;;56.85;27.90;;;;;;;2.26;100.00;101952.97;5074558;28;20140;-78
2023/02/15 00:21:39;;;;;;;56.92;28.58;;;;;;;2.07;100.00;101924.00;5073503;28;20078;-78
2023/02/15 00:24:09;;;;;;;55.95;27.60;;;;;;;2.36;100.00;101949.59;5074846;28;20045;-78
2023/02/15 00:26:38;;;;;;;53.85;26.88;;;;;;;1.69;100.00;101858.22;5074793;28;20584;-80
2023/02/15 00:29:05;;;;;;;53.85;26.75;;;;;;;2.23;100.00;101948.56;5075851;28;20127;-79
2023/02/15 00:31:33;;;;;;;51.63;27.58;;;;;;;1.49;100.00;101830.97;5075141;28;20052;-80
2023/02/15 00:34:10;;;;;;;49.67;25.55;;;;;;;2.14;100.00;101943.25;5075956;28;20515;-79
2023/02/15 00:36:37;;;;;;;49.40;25.90;;;;;;;1.94;100.00;101915.97;5075026;28;20049;-79
2023/02/15 00:39:05;;;;;;;55.65;26.98;;;;;;;1.59;100.00;101869.41;5075875;28;20048;-78
2023/02/15 00:41:32;;;;;;;54.10;25.98;;;;;;;1.86;100.00;101915.91;5076057;28;20055;-80
2023/02/15 00:43:59;;;;;;;52.25;26.13;;;;;;;1.84;100.00;101916.75;5073183;28;20058;-80
2023/02/15 00:46:26;;;;;;;50.78;24.50;;;;;;;1.96;100.00;101936.06;5070391;28;20060;-79
2023/02/15 00:48:52;;;;;;;50.35;25.23;;;;;;;1.01;100.00;101774.66;5074424;28;20048;-79
2023/02/15 00:51:20;;;;;;;48.25;25.23;;;;;;;1.68;100.00;101868.66;5075128;28;20045;-79
2023/02/15 00:53:47;;;;;;;50.47;24.52;;;;;;;1.82;100.00;101887.97;5075932;28;20048;-80
2023/02/15 00:56:14;;;;;;;48.90;24.75;;;;;;;1.96;100.00;101917.75;5075438;28;20071;-82
2023/02/15 00:58:40;;;;;;;49.78;25.20;;;;;;;2.06;100.00;101930.06;5067902;28;20057;-79
2023/02/15 01:01:12;;;;;;;51.45;25.92;;;;;;;2.01;100.00;101928.28;5057319;28;20583;-80
2023/02/15 01:03:41;;;;;;;53.55;26.45;;;;;;;1.62;100.00;101863.34;5073229;28;20080;-79
2023/02/15 01:06:08;;;;;;;55.20;25.63;;;;;;;1.78;100.00;101896.63;5075715;28;20052;-80
2023/02/15 01:08:35;;;;;;;57.28;26.48;;;;;;;1.96;100.00;101941.28;5074794;28;20135;-81
2023/02/15 01:11:10;;;;;;;51.60;26.40;;;;;;;1.92;100.00;101939.47;5075173;28;20045;-80
2023/02/15 01:13:37;;;;;;;52.67;26.42;;;;;;;0.77;100.00;101755.19;5074122;28;20135;-82
2023/02/15 01:16:04;;;;;;;56.67;26.58;;;;;;;1.13;100.00;101831.34;5057857;28;20059;-81
2023/02/15 01:18:32;;;;;;;63.50;27.95;;;;;;;1.68;100.00;101929.59;5075652;28;20144;-80
2023/02/15 01:20:59;;;;;;;61.40;27.85;;;;;;;1.42;100.00;101891.78;5075518;28;20076;-80
2023/02/15 01:23:25;;;;;;;59.92;27.45;;;;;;;0.84;100.00;101798.75;5075467;28;20056;-80
2023/02/15 01:25:52;;;;;;;59.30;28.38;;;;;;;1.16;100.00;101830.53;5069068;28;20057;-81
2023/02/15 01:28:18;;;;;;;61.33;29.33;;;;;;;1.59;100.00;101890.28;5075476;28;20083;-80
2023/02/15 01:30:45;;;;;;;63.72;28.52;;;;;;;1.77;100.00;101932.31;5056704;28;20498;-80
2023/02/15 01:33:17;;;;;;;60.28;27.08;;;;;;;1.73;100.00;101912.22;5074433;28;20048;-80
2023/02/15 01:35:45;;;;;;;60.83;28.42;;;;;;;-0.12;100.00;101588.81;5074387;28;20055;-81
2023/02/15 01:38:14;;;;;;;59.53;27.30;;;;;;;1.09;100.00;101800.00;5074995;28;20634;-80
2023/02/15 01:40:40;;;;;;;63.50;29.90;;;;;;;1.21;100.00;101814.09;5057145;28;20489;-79
2023/02/15 01:43:12;;;;;;;64.22;28.95;;;;;;;1.69;100.00;101878.25;5068819;28;20131;-79
2023/02/15 01:45:39;;;;;;;58.22;26.95;;;;;;;0.87;100.00;101739.69;5074078;28;20563;-81
2023/02/15 01:48:25;;;;;;;59.92;29.00;;;;;;;1.93;100.00;101907.28;5073780;28;20072;-80
2023/02/15 01:50:55;;;;;;;58.45;27.40;;;;;;;1.47;100.00;101827.47;5073664;28;20045;-80
2023/02/15 01:53:34;;;;;;;61.28;27.90;;;;;;;1.77;100.00;101868.75;5070642;28;20048;-78
2023/02/15 01:56:08;;;;;;;62.28;27.88;;;;;;;1.96;100.00;101895.97;5073181;28;20052;-79
2023/02/15 01:58:36;;;;;;;59.55;27.75;;;;;;;1.59;100.00;101831.97;5070306;28;20052;-80
2023/02/15 02:01:05;;;;;;;60.85;28.75;;;;;;;1.98;100.00;101891.66;5072322;28;20497;-79
2023/02/15 02:03:59;;;;;;;58.78;28.65;;;;;;;2.02;100.00;101901.28;5073387;28;20144;-80
2023/02/15 02:06:26;;;;;;;58.45;27.50;;;;;;;1.61;100.00;101835.47;5070298;28;20055;-81
2023/02/15 02:08:54;;;;;;;59.72;26.20;;;;;;;1.88;100.00;101887.19;5072478;28;20051;-81
2023/02/15 02:11:21;;;;;;;60.28;27.23;;;;;;;1.34;100.00;101799.47;5067745;28;20411;-81
2023/02/15 02:13:50;;;;;;;59.90;27.83;;;;;;;1.54;100.00;101839.75;5063882;28;20044;-82
2023/02/15 02:16:28;;;;;;;61.13;27.52;;;;;;;1.92;100.00;101894.19;5073257;28;20049;-81
2023/02/15 02:19:01;;;;;;;61.08;27.90;;;;;;;1.91;100.00;101877.63;5071227;28;20061;-80
2023/02/15 02:22:06;;;;;;;60.90;28.70;;;;;;;1.90;100.00;101885.44;5073494;28;20141;-81
2023/02/15 02:25:00;;;;;;;64.88;28.95;;;;;;;1.91;100.00;101882.84;5047945;28;20566;-81
2023/02/15 02:27:45;;;;;;;61.35;28.10;;;;;;;1.95;100.00;101878.56;5067613;28;20063;-84
2023/02/15 02:30:40;;;;;;;61.92;29.02;;;;;;;1.93;100.00;101875.03;5066679;28;20053;-82
2023/02/15 02:33:24;;;;;;;62.67;28.00;;;;;;;1.75;100.00;101871.34;5068034;28;20191;-82
2023/02/15 02:36:00;;;;;;;64.43;27.45;;;;;;;1.85;100.00;101879.31;5075619;28;20056;-83
2023/02/15 02:38:42;;;;;;;65.90;29.50;;;;;;;1.86;100.00;101879.34;5080310;28;20055;-82
2023/02/15 02:41:39;;;;;;;60.13;27.88;;;;;;;1.70;100.00;101833.88;5072663;28;20407;-83
2023/02/15 02:44:13;;;;;;;64.10;28.42;;;;;;;1.95;100.00;101874.22;5069545;28;20120;-83
2023/02/15 02:46:52;;;;;;;67.13;30.02;;;;;;;1.96;100.00;101864.63;5077763;28;20048;-80
2023/02/15 02:49:36;;;;;;;65.70;29.08;;;;;;;1.58;100.00;101809.31;5066509;28;20056;-82
2023/02/15 02:52:31;;;;;;;65.80;29.33;;;;;;;1.97;100.00;101869.00;5069071;28;20288;-78
2023/02/15 02:54:59;;;;;;;64.65;29.02;;;;;;;1.99;100.00;101868.16;5072099;28;20052;-80
2023/02/15 02:57:28;;;;;;;65.60;30.15;;;;;;;1.87;100.00;101841.03;5071862;28;20143;-80
2023/02/15 02:59:56;;;;;;;61.58;27.33;;;;;;;1.65;100.00;101795.50;5052849;28;20063;-78
2023/02/15 03:02:31;;;;;;;61.08;28.25;;;;;;;2.10;100.00;101860.44;5066939;28;20123;-80
2023/02/15 03:05:06;;;;;;;65.43;28.67;;;;;;;1.79;100.00;101812.19;5072107;28;20070;-81
2023/02/15 03:07:35;;;;;;;58.65;27.35;;;;;;;1.60;100.00;101777.16;5048380;28;20060;-81
2023/02/15 03:10:04;;;;;;;62.45;28.35;;;;;;;2.19;100.00;101849.22;5071794;28;20054;-80
2023/02/15 03:12:34;;;;;;;61.60;28.10;;;;;;;1.56;100.00;101744.06;5072322;28;20127;-79
2023/02/15 03:15:16;;;;;;;58.83;28.00;;;;;;;1.75;100.00;101782.56;5066374;28;20052;-79
2023/02/15 03:17:47;;;;;;;62.50;27.50;;;;;;;1.90;100.00;101817.53;5072298;28;20051;-79
2023/02/15 03:20:29;;;;;;;66.63;29.63;;;;;;;1.96;100.00;101838.50;5067145;28;20135;-81
2023/02/15 03:23:06;;;;;;;63.25;28.88;;;;;;;1.26;100.00;101747.16;5069642;28;20045;-82
2023/02/15 03:25:43;;;;;;;61.83;29.30;;;;;;;1.83;100.00;101845.34;5069032;28;20052;-81
2023/02/15 03:28:15;;;;;;;59.13;28.08;;;;;;;1.23;100.00;101743.66;5079903;28;20107;-81
2023/02/15 03:30:45;;;;;;;67.55;29.58;;;;;;;1.70;100.00;101819.94;5083054;28;20056;-82
2023/02/15 03:33:13;;;;;;;;;;;;;;;1.84;100.00;101843.59;5080324;28;20093;-80
2023/02/15 03:35:52;;;;;;;68.63;29.35;;;;;;;1.83;100.00;101842.72;5060047;28;19920;-80
2023/02/15 03:38:26;;;;;;;65.45;28.17;;;;;;;1.79;100.00;101843.53;5065534;28;20041;-80
2023/02/15 03:41:11;;;;;;;71.88;30.23;;;;;;;0.85;100.00;101684.03;5072269;28;20261;-80
2023/02/15 03:43:47;;;;;;;71.18;30.98;;;;;;;1.89;100.00;101841.94;5068384;28;20143;-81
2023/02/15 03:46:27;;;;;;;67.45;30.48;;;;;;;2.01;100.00;101842.06;5073090;28;20131;-79
2023/02/15 03:48:58;;;;;;;65.85;29.50;;;;;;;2.07;100.00;101853.44;5069156;28;20044;-81
2023/02/15 03:51:33;;;;;;;64.38;29.45;;;;;;;1.42;100.00;101736.03;5075901;28;20048;-81
2023/02/15 03:54:10;;;;;;;68.47;30.63;;;;;;;1.62;100.00;101758.91;5058449;28;20060;-79
2023/02/15 03:56:40;;;;;;;68.40;30.10;;;;;;;1.47;100.00;101732.63;5074953;28;20049;-80
2023/02/15 04:02:16;;;;;;;68.95;30.00;;;;;;;1.67;100.00;101765.94;5073379;28;20076;-79
2023/02/15 04:04:46;;;;;;;70.72;31.17;;;;;;;1.96;100.00;101800.19;5070928;28;20052;-81
2023/02/15 04:07:13;;;;;;;71.78;32.92;;;;;;;1.69;100.00;101763.34;5069222;28;20048;-82
2023/02/15 04:12:24;;;;;;;71.10;30.85;;;;;;;1.47;100.00;101728.28;5068378;28;20055;-81
2023/02/15 04:17:37;;;;;;;77.05;32.97;;;;;;;2.11;100.00;101808.19;5069652;28;20055;-80
2023/02/15 04:25:34;;;;;;;78.90;33.28;;;;;;;1.61;100.00;101750.19;5074831;28;20054;-80
2023/02/15 04:28:01;;;;;;;75.63;32.42;;;;;;;0.93;100.00;101630.25;5074478;28;20064;-81
2023/02/15 04:30:27;;;;;;;70.47;30.95;;;;;;;1.67;100.00;101745.06;5071180;28;20067;-80
2023/02/15 04:32:56;;;;;;;72.85;31.23;;;;;;;2.16;100.00;101829.16;5069093;28;20576;-81
2023/02/15 04:35:22;;;;;;;73.43;30.83;;;;;;;2.08;100.00;101792.47;5070077;28;20044;-82
2023/02/15 04:37:49;;;;;;;71.50;30.40;;;;;;;2.01;100.00;101788.06;5073927;28;20059;-79
2023/02/15 04:40:16;;;;;;;74.07;31.95;;;;;;;2.15;100.00;101813.47;5074263;28;20048;-81
2023/02/15 04:42:48;;;;;;;69.75;29.42;;;;;;;1.43;100.00;101703.00;5074574;28;20103;-79
2023/02/15 04:45:15;;;;;;;72.82;30.70;;;;;;;2.17;100.00;101820.47;5074557;28;20119;-80
2023/02/15 04:47:41;;;;;;;69.55;31.02;;;;;;;1.98;100.00;101816.78;5074375;28;20059;-80
2023/02/15 04:50:08;;;;;;;69.72;29.42;;;;;;;2.06;100.00;101822.94;5055970;28;20533;-80
2023/02/15 04:52:35;;;;;;;71.43;30.40;;;;;;;1.36;100.00;101696.84;5074024;28;20135;-79
2023/02/15 04:55:02;;;;;;;70.60;29.92;;;;;;;2.18;100.00;101819.59;5074508;28;20098;-79
2023/02/15 04:57:29;;;;;;;76.72;31.38;;;;;;;2.03;100.00;101783.75;5068386;28;20056;-79
2023/02/15 04:59:57;;;;;;;72.55;29.73;;;;;;;2.22;100.00;101800.44;5074336;28;20063;-80
2023/02/15 05:02:23;;;;;;;71.60;30.55;;;;;;;2.04;100.00;101764.59;5075458;28;20581;-80
2023/02/15 05:04:50;;;;;;;71.55;30.83;;;;;;;2.04;100.00;101761.09;5072603;28;20044;-79
2023/02/15 05:07:17;;;;;;;71.28;29.45;;;;;;;2.33;100.00;101822.34;5047083;28;20099;-79
2023/02/15 05:09:43;;;;;;;74.97;31.05;;;;;;;1.21;100.00;101651.44;5074801;28;20112;-79
2023/02/15 05:12:10;;;;;;;77.90;31.77;;;;;;;1.59;100.00;101774.53;5073476;28;20042;-80
2023/02/15 05:14:37;;;;;;;84.18;33.17;;;;;;;1.42;100.00;101767.38;5073266;28;20060;-79
2023/02/15 05:17:05;;;;;;;80.68;33.10;;;;;;;0.83;100.00;101667.50;5072323;28;20049;-79
2023/02/15 05:19:31;;;;;;;82.28;31.73;;;;;;;0.76;100.00;101662.19;5067694;28;20139;-79
2023/02/15 05:21:58;;;;;;;89.03;33.83;;;;;;;1.45;100.00;101763.94;5071427;28;20143;-84
2023/02/15 05:29:56;;;;;;;85.53;33.50;;;;;;;1.97;100.00;101806.31;5073909;28;20151;-85
2023/02/15 05:32:23;;;;;;;80.80;33.30;;;;;;;1.93;100.00;101775.78;5073802;28;20063;-80
2023/02/15 05:34:50;;;;;;;80.43;32.05;;;;;;;2.12;100.00;101798.63;5072859;28;20052;-81
2023/02/15 05:37:17;;;;;;;80.88;32.75;;;;;;;1.55;100.00;101705.75;5074199;28;20040;-82
2023/02/15 05:39:44;;;;;;;80.93;33.53;;;;;;;2.06;100.00;101801.16;5070760;28;20049;-81
2023/02/15 05:42:11;;;;;;;75.85;31.67;;;;;;;1.64;100.00;101699.75;5069929;28;20037;-82
2023/02/15 05:44:37;;;;;;;82.88;32.08;;;;;;;2.28;100.00;101794.41;5073767;28;20052;-81
2023/02/15 05:47:06;;;;;;;76.20;31.48;;;;;;;1.91;100.00;101747.03;5073291;28;20151;-80
2023/02/15 05:49:33;;;;;;;72.10;29.17;;;;;;;1.85;100.00;101736.53;5055099;28;20065;-81
2023/02/15 05:52:00;;;;;;;67.47;28.58;;;;;;;1.79;100.00;101732.97;5073769;28;20067;-82
2023/02/15 05:54:26;;;;;;;75.00;29.83;;;;;;;1.70;100.00;101715.50;5073854;28;20053;-80
2023/02/15 05:56:53;;;;;;;72.95;30.40;;;;;;;1.75;100.00;101729.44;5072603;28;20076;-78
2023/02/15 05:59:19;;;;;;;76.05;31.42;;;;;;;2.14;100.00;101811.72;5055389;28;20045;-78
2023/02/15 06:01:46;;;;;;;75.35;29.77;;;;;;;2.06;100.00;101814.22;5073804;28;20068;-80
2023/02/15 06:04:13;;;;;;;76.40;30.98;;;;;;;1.48;100.00;101713.50;5073107;28;20061;-78
2023/02/15 06:06:39;;;;;;;73.95;30.60;;;;;;;1.95;100.00;101781.91;5072766;28;20067;-79
2023/02/15 06:09:06;;;;;;;80.63;31.25;;;;;;;1.70;100.00;101776.44;5072818;28;20052;-79
2023/02/15 06:11:33;;;;;;;77.45;31.60;;;;;;;1.59;100.00;101767.56;5072449;28;20476;-81
2023/02/15 06:13:59;;;;;;;76.63;30.73;;;;;;;1.48;100.00;101750.03;5073545;28;20478;-80
2023/02/15 06:16:26;;;;;;;79.00;31.90;;;;;;;1.03;100.00;101668.63;5072423;28;20066;-79
2023/02/15 06:18:52;;;;;;;75.60;31.77;;;;;;;1.26;100.00;101701.97;5070882;28;20059;-79
2023/02/15 06:21:19;;;;;;;79.07;32.65;;;;;;;2.13;100.00;101826.50;5062893;28;20079;-80
2023/02/15 06:23:46;;;;;;;73.55;30.27;;;;;;;1.28;100.00;101671.50;5072741;28;20049;-79
2023/02/15 06:26:13;;;;;;;74.75;30.83;;;;;;;1.95;100.00;101780.16;5081585;28;20083;-80
2023/02/15 06:28:40;;;;;;;72.60;30.65;;;;;;;2.10;100.00;101810.78;5081055;28;20063;-79
2023/02/15 06:31:07;;;;;;;74.72;30.58;;;;;;;1.28;100.00;101661.06;5082861;28;20569;-81
2023/02/15 06:33:34;;;;;;;73.55;30.42;;;;;;;2.02;100.00;101802.91;5084395;28;20076;-81
2023/02/15 06:36:01;;;;;;;78.45;32.08;;;;;;;1.65;100.00;101727.59;5085649;28;20072;-79
2023/02/15 06:38:29;;;;;;;76.70;31.58;;;;;;;2.24;100.00;101840.56;5087806;28;20052;-79
2023/02/15 06:40:56;;;;;;;72.80;29.83;;;;;;;2.22;100.00;101821.34;5082103;28;20057;-79
2023/02/15 06:43:22;;;;;;;70.07;30.60;;;;;;;1.48;100.00;101697.84;5074601;28;20123;-79
2023/02/15 06:45:49;;;;;;;75.18;30.88;;;;;;;1.95;100.00;101771.44;5074255;28;20165;-80
2023/02/15 06:48:15;;;;;;;71.85;30.40;;;;;;;2.24;100.00;101826.59;5057127;28;20055;-79
2023/02/15 06:50:42;;;;;;;70.47;29.98;;;;;;;1.69;100.00;101748.56;5072873;28;20059;-79
2023/02/15 06:53:09;;;;;;;63.20;27.50;;;;;;;1.42;100.00;101733.44;5072975;28;20136;-79
2023/02/15 06:55:35;;;;;;;66.38;29.23;;;;;;;1.42;100.00;101715.16;5074862;28;20147;-79
2023/02/15 06:58:02;;;;;;;66.13;28.73;;;;;;;1.45;100.00;101730.00;5074691;28;20052;-81
2023/02/15 07:00:29;;;;;;;68.65;28.77;;;;;;;2.13;100.00;101847.41;5074087;28;20068;-80
2023/02/15 07:02:57;;;;;;;66.43;28.23;;;;;;;1.82;100.00;101800.91;5073703;28;20180;-78
2023/02/15 07:05:30;;;;;;;71.07;29.88;;;;;;;1.53;100.00;101775.34;5072593;28;20053;-78
2023/02/15 07:07:58;;;;;;;60.40;27.98;;;;;;;1.73;100.00;101802.53;5073721;28;20144;-78
2023/02/15 07:10:25;;;;;;;65.30;28.38;;;;;;;1.82;100.00;101807.00;5072501;28;20596;-78
2023/02/15 07:12:52;;;;;;;72.10;28.63;;;;;;;1.65;100.00;101783.31;5072056;28;20045;-80
2023/02/15 07:15:22;;;;;;;69.30;29.27;;;;;;;1.97;100.00;101824.59;5071942;28;20045;-78
2023/02/15 07:17:50;;;;;;;;;;;;;;;2.20;100.00;101859.69;5073607;28;20056;-80
2023/02/15 07:20:20;;;;;;;72.85;30.65;;;;;;;1.73;100.00;101801.69;5071097;28;19920;-79
2023/02/15 07:22:47;;;;;;;74.78;31.17;;;;;;;1.79;100.00;101838.31;5071567;28;20114;-79
2023/02/15 07:25:14;;;;;;;77.55;30.13;;;;;;;0.62;100.00;101662.88;5072360;28;20416;-79
2023/02/15 07:27:41;;;;;;;75.20;30.95;;;;;;;1.67;100.00;101844.28;5071699;28;20048;-80
2023/02/15 07:30:11;;;;;;;70.60;29.58;;;;;;;1.17;100.00;101720.09;5070007;28;20147;-78
2023/02/15 07:33:22;;;;;;;67.13;29.08;;;;;;;1.86;100.00;101841.88;5071617;28;20147;-79
2023/02/15 07:35:25;;;;;;;67.15;28.23;;;;;;;1.51;100.00;101766.63;5065073;28;20057;-79
2023/02/15 07:37:52;;;;;;;72.47;29.77;;;;;;;1.77;100.00;101793.03;5072026;28;20098;-79
2023/02/15 07:40:22;;;;;;;67.78;29.10;;;;;;;1.66;100.00;101779.84;5069860;28;20095;-80
2023/02/15 07:42:49;;;;;;;69.88;28.95;;;;;;;1.89;100.00;101821.88;5071684;28;20044;-77
2023/02/15 07:45:17;;;;;;;65.18;28.33;;;;;;;1.29;100.00;101713.28;5071124;28;20425;-79
2023/02/15 07:47:44;;;;;;;61.50;27.98;;;;;;;1.93;100.00;101841.09;5072675;28;20056;-79
2023/02/15 07:50:10;;;;;;;66.63;27.95;;;;;;;1.53;100.00;101791.00;5071604;28;20067;-78
2023/02/15 07:52:37;;;;;;;68.32;27.95;;;;;;;1.02;100.00;101681.66;5070651;28;20144;-80
2023/02/15 07:55:04;;;;;;;61.42;26.40;;;;;;;1.11;100.00;101688.69;5064646;28;20066;-81
2023/02/15 07:57:31;;;;;;;63.92;27.60;;;;;;;0.87;100.00;101656.25;5071361;28;20139;-78
2023/02/15 07:59:58;;;;;;;59.67;25.67;;;;;;;0.92;100.00;101649.38;5072642;28;20048;-78
2023/02/15 08:02:24;;;;;;;56.78;24.90;;;;;;;1.30;100.00;101721.97;5070575;28;20611;-79
2023/02/15 08:04:51;;;;;;;54.33;24.48;;;;;;;2.01;100.00;101834.22;5067800;28;20048;-78
2023/02/15 08:07:18;;;;;;;54.20;24.90;;;;;;;2.02;100.00;101854.25;5071976;28;20560;-79
2023/02/15 08:09:44;;;;;;;55.95;23.98;;;;;;;2.01;100.00;101842.94;5063483;28;20686;-79
2023/02/15 08:12:11;;;;;;;46.20;22.02;;;;;;;1.14;100.00;101684.41;5071217;28;20512;-80
2023/02/15 08:14:37;;;;;;;46.10;21.98;;;;;;;1.33;100.00;101720.28;5069524;28;20040;-80
2023/02/15 08:17:04;;;;;;;45.05;21.73;;;;;;;1.57;100.00;101755.38;5068259;28;20596;-79
2023/02/15 08:19:32;;;;;;;48.00;21.30;;;;;;;2.10;100.00;101842.16;5071242;28;20052;-79
2023/02/15 08:22:05;;;;;;;45.92;22.63;;;;;;;1.82;100.00;101803.53;5053603;28;20052;-77
2023/02/15 08:24:34;;;;;;;60.05;28.17;;;;;;;2.01;100.00;101840.31;5071018;28;20044;-78
2023/02/15 08:27:04;;;;;;;40.05;20.83;;;;;;;1.31;100.00;101750.72;5068697;28;20057;-80
2023/02/15 08:29:33;;;;;;;42.45;21.10;;;;;;;1.42;100.00;101777.81;5070408;28;20063;-78
2023/02/15 08:32:02;;;;;;;48.25;22.50;;;;;;;0.55;100.00;101627.16;5069500;28;20129;-79
2023/02/15 08:34:32;;;;;;;40.92;21.17;;;;;;;1.72;100.00;101829.56;5069133;28;20056;-78
2023/02/15 08:36:58;;;;;;;42.90;20.15;;;;;;;1.42;100.00;101761.28;5074130;28;20128;-79
2023/02/15 08:39:25;;;;;;;34.97;18.40;;;;;;;1.85;100.00;101827.06;5065291;28;20079;-79
2023/02/15 08:41:52;;;;;;;39.40;19.83;;;;;;;1.84;100.00;101827.94;5074319;28;20070;-78
2023/02/15 08:44:19;;;;;;;38.40;19.55;;;;;;;0.96;100.00;101679.81;5073109;28;20055;-78
2023/02/15 08:46:48;;;;;;;37.20;19.05;;;;;;;1.92;100.00;101826.28;5073597;28;20052;-79
2023/02/15 08:49:20;;;;;;;39.97;20.30;;;;;;;1.89;100.00;101826.25;5071782;28;20056;-79
2023/02/15 08:51:48;;;;;;;39.67;19.15;;;;;;;1.79;100.00;101825.25;5073378;28;20088;-78
2023/02/15 08:54:21;;;;;;;38.85;20.23;;;;;;;1.77;100.00;101825.22;5072517;28;20052;-79
2023/02/15 08:56:48;;;;;;;41.83;20.58;;;;;;;0.76;100.00;101646.56;5063696;28;20132;-82
2023/02/15 08:59:21;;;;;;;44.45;20.98;;;;;;;1.85;100.00;101827.94;5075026;28;20052;-81
2023/02/15 09:01:49;;;;;;;41.42;20.88;;;;;;;1.12;100.00;101755.66;5073277;28;20063;-78
2023/02/15 09:04:17;;;;;;;43.15;19.67;;;;;;;1.05;100.00;101775.59;5071366;28;20044;-78
2023/02/15 09:06:45;;;;;;;46.88;21.70;;;;;;;1.22;100.00;101800.19;5069629;28;20044;-79
2023/02/15 09:09:14;;;;;;;41.47;21.50;;;;;;;1.36;100.00;101818.63;5073696;28;20048;-79
2023/02/15 09:11:44;;;;;;;42.20;21.35;;;;;;;1.20;100.00;101806.22;5080411;28;20057;-79
2023/02/15 09:14:19;;;;;;;42.42;21.65;;;;;;;1.17;100.00;101799.25;5073189;28;20036;-79
2023/02/15 09:16:48;;;;;;;51.75;22.83;;;;;;;1.19;100.00;101783.59;5073457;28;20568;-81
2023/02/15 09:19:17;;;;;;;41.53;21.08;;;;;;;0.60;100.00;101663.72;5052587;28;20086;-79
2023/02/15 09:21:44;;;;;;;41.00;20.67;;;;;;;1.37;100.00;101771.69;5050035;28;20048;-80
2023/02/15 09:24:13;;;;;;;36.13;19.15;;;;;;;1.76;100.00;101799.09;5076453;28;20055;-80
2023/02/15 09:26:44;;;;;;;31.88;17.20;;;;;;;1.87;100.00;101802.72;5077272;28;20658;-80
2023/02/15 09:29:11;;;;;;;;;;;;;;;1.92;100.00;101797.53;5082541;28;20310;-80
2023/02/15 09:31:41;;;;;;;34.95;17.13;;;;;;;1.75;100.00;101773.84;5079108;28;20022;-80
2023/02/15 09:34:07;;;;;;;27.17;14.55;;;;;;;1.08;100.00;101665.22;5074266;28;20403;-79
2023/02/15 09:36:37;;;;;;;32.08;16.75;;;;;;;1.92;100.00;101795.78;5056849;28;20123;-80
2023/02/15 09:39:05;;;;;;;35.38;18.35;;;;;;;1.71;100.00;101765.13;5068815;28;20055;-79
2023/02/15 09:42:18;;;;;;;32.17;17.33;;;;;;;1.84;100.00;101787.03;5069623;28;20087;-79
2023/02/15 09:45:06;;;;;;;37.97;19.50;;;;;;;1.88;100.00;101791.41;5066670;28;20139;-79
2023/02/15 09:47:49;;;;;;;35.83;19.30;;;;;;;1.91;100.00;101793.16;5065372;28;20517;-78
2023/02/15 09:50:27;;;;;;;37.65;19.88;;;;;;;1.79;100.00;101777.38;5071783;28;20080;-77
2023/02/15 09:53:31;;;;;;;40.90;19.90;;;;;;;1.94;100.00;101799.31;5067854;28;20052;-79
2023/02/15 09:56:27;;;;;;;38.85;19.88;;;;;;;1.19;100.00;101742.75;5067056;28;20063;-80
2023/02/15 09:59:04;;;;;;;44.25;20.77;;;;;;;1.22;100.00;101754.94;5067331;28;20052;-81
2023/02/15 10:01:46;;;;;;;42.15;19.77;;;;;;;1.52;100.00;101806.66;5064837;28;20478;-78
2023/02/15 10:04:15;;;;;;;39.75;20.77;;;;;;;1.60;100.00;101790.22;5071753;28;20041;-80
2023/02/15 10:07:11;;;;;;;44.17;21.55;;;;;;;1.80;100.00;101813.94;5072038;28;20185;-80
2023/02/15 10:10:07;;;;;;;38.22;20.65;;;;;;;1.86;100.00;101818.38;5066702;28;20556;-78
2023/02/15 10:12:58;;;;;;;42.80;20.08;;;;;;;1.96;100.00;101822.84;5062525;28;20045;-78
2023/02/15 10:15:41;;;;;;;37.92;19.50;;;;;;;2.04;100.00;101823.81;5068326;28;20070;-80
2023/02/15 10:18:45;;;;;;;36.72;20.42;;;;;;;2.07;100.00;101815.97;5071589;28;20056;-80
2023/02/15 10:21:50;;;;;;;36.17;19.15;;;;;;;2.07;100.00;101822.09;5051201;28;20086;-80
2023/02/15 10:24:45;;;;;;;37.85;20.08;;;;;;;2.05;100.00;101817.69;4970288;28;20677;-78
2023/02/15 10:27:21;;;;;;;39.65;21.63;;;;;;;1.86;100.00;101780.06;4971255;28;20059;-80
2023/02/15 10:30:02;;;;;;;40.88;21.00;;;;;;;1.82;100.00;101769.56;5044248;28;20688;-79
2023/02/15 10:32:37;;;;;;;42.83;22.10;;;;;;;1.52;100.00;101713.56;5069628;28;20072;-78
2023/02/15 10:35:21;;;;;;;38.00;21.35;;;;;;;2.17;100.00;101820.47;5070542;28;20394;-79
2023/02/15 10:38:01;;;;;;;40.47;21.10;;;;;;;2.20;100.00;101812.66;5068773;28;20057;-80
2023/02/15 10:40:32;;;;;;;46.40;21.95;;;;;;;2.14;100.00;101814.31;5071570;28;20110;-80
2023/02/15 10:43:20;;;;;;;41.85;21.33;;;;;;;1.33;100.00;101703.75;5071015;28;20482;-79
2023/02/15 10:45:49;;;;;;;39.53;21.15;;;;;;;1.48;100.00;101756.13;5065354;28;20520;-81
2023/02/15 10:48:47;;;;;;;40.88;21.38;;;;;;;1.88;100.00;101806.22;5069756;28;20056;-79
2023/02/15 10:51:35;;;;;;;49.95;25.15;;;;;;;1.55;100.00;101736.22;5070890;28;20048;-80
2023/02/15 10:54:15;;;;;;;45.67;24.02;;;;;;;1.72;100.00;101746.00;5067242;28;20131;-79
2023/02/15 10:57:00;;;;;;;50.88;26.20;;;;;;;1.78;100.00;101734.72;5062890;28;20075;-79
2023/02/15 10:59:52;;;;;;;47.92;24.80;;;;;;;1.83;100.00;101721.69;5070381;28;20070;-79
2023/02/15 11:02:40;;;;;;;43.40;23.05;;;;;;;2.22;100.00;101779.53;5070764;28;20739;-80
2023/02/15 11:05:21;;;;;;;41.58;22.08;;;;;;;2.24;100.00;101790.00;5070549;28;20048;-80
2023/02/15 11:07:52;;;;;;;40.65;21.60;;;;;;;1.70;100.00;101745.09;5071021;28;20497;-79
2023/02/15 11:10:31;;;;;;;46.88;23.85;;;;;;;1.81;100.00;101797.44;5070347;28;20131;-79
2023/02/15 11:13:05;;;;;;;52.75;24.88;;;;;;;1.58;100.00;101788.44;5071249;28;20063;-78
2023/02/15 11:15:39;;;;;;;54.58;25.27;;;;;;;1.75;100.00;101792.13;5064016;28;20052;-79
2023/02/15 11:18:16;;;;;;;55.63;25.42;;;;;;;1.84;100.00;101786.13;5071368;28;20056;-79
2023/02/15 11:20:56;;;;;;;54.92;25.67;;;;;;;1.79;100.00;101787.81;5071334;28;20079;-79
2023/02/15 11:23:25;;;;;;;53.58;25.65;;;;;;;0.81;100.00;101656.16;5070383;28;20048;-81
2023/02/15 11:25:59;;;;;;;54.50;25.23;;;;;;;1.12;100.00;101734.78;5070883;28;20572;-79
2023/02/15 11:28:50;;;;;;;58.08;26.02;;;;;;;0.67;100.00;101636.88;5070838;28;20095;-79
2023/02/15 11:31:25;;;;;;;56.20;25.38;;;;;;;0.62;100.00;101594.25;5050275;28;20051;-79
2023/02/15 11:33:58;;;;;;;55.80;26.98;;;;;;;1.17;100.00;101699.22;5067909;28;20056;-79
2023/02/15 11:36:31;;;;;;;55.25;25.90;;;;;;;1.63;100.00;101769.38;5069532;28;20048;-79
2023/02/15 11:39:03;;;;;;;63.65;29.65;;;;;;;1.13;100.00;101643.50;5047803;28;20148;-80
2023/02/15 11:41:37;;;;;;;62.28;28.98;;;;;;;1.46;100.00;101645.59;5061878;28;20057;-77
2023/02/15 11:44:10;;;;;;;60.42;28.70;;;;;;;2.19;100.00;101769.09;5070569;28;20150;-79
2023/02/15 11:46:37;;;;;;;64.03;29.15;;;;;;;1.34;100.00;101659.41;5071824;28;20052;-80
2023/02/15 11:49:33;;;;;;;63.13;28.85;;;;;;;1.36;100.00;101685.53;5068296;28;20165;-80
2023/02/15 11:52:04;;;;;;;68.93;30.83;;;;;;;1.74;100.00;101762.53;5048054;28;20068;-80